METAR Αεροδρομίων Α.Μ.Θ.

 

LGKV - ΚΑΒΑΛΑ/Α.Μ.Θ., ΕΛΛΑΣ
Distance from Civil Protection: WS 82km
Updated: Wed, 24-Apr-2024 2:50pm EEST
Few Clouds
Few Clouds
 Wind from SSW
Wind: SSW 22 km/h
Temperature: 22°C
Dew Point: 13°C
Humidity: 57%
Barometer: 1004 hPa
Clouds: Few Clouds
Visibility: 10 km
Cloud details: Few Clouds 762 m
2024/04/24 11:50 LGKV 241150Z 20012KT 9999 FEW025 22/13 Q1004
 
LGAL - ΑΛΕΞΑΝΔΡΟΥΠΟΛΗ/Α.Μ.Θ., ΕΛΛΑΣ
Distance from Civil Protection: ES 68km
Updated: Wed, 24-Apr-2024 2:50pm EEST
Few Clouds
Few Clouds
 Wind from SW
Wind: SW 11 km/h
Temperature: 20°C
Dew Point: 15°C
Humidity: 73%
Barometer: 1005 hPa
Clouds: Few Clouds
Visibility: 9 km
Cloud details: Few Clouds 610 m
2024/04/24 11:50 LGAL 241150Z 22006KT 9000 FEW020 20/15 Q1005